Time;durP1;ratioP1;P1;durP2;ratioP2;P2;SDS_P1;SDS_P2;PMS_P1;PMS_P2;Temp;Humidity;BMP_temperature;BMP_pressure;BME280_temperature;BME280_humidity;BME280_pressure;Samples;Min_cycle;Max_cycle;Signal;HPM_P1;HPM_P2
2022/09/12 00:01:08;;;;;;;;;;;19.40;63.70;;;;;;6165191;23;19916;-80
2022/09/12 00:03:36;;;;;;;;;;;19.30;64.40;;;;;;6162267;23;19963;-81
2022/09/12 00:06:07;;;;;;;;;;;19.30;63.80;;;;;;6154523;23;19916;-80
2022/09/12 00:08:33;;;;;;;;;;;19.30;63.10;;;;;;6157754;23;19940;-81
2022/09/12 00:11:03;;;;;;;;;;;19.20;62.90;;;;;;6154288;23;19951;-82
2022/09/12 00:13:30;;;;;;;;;;;19.30;62.40;;;;;;6162748;23;19944;-81
2022/09/12 00:15:56;;;;;;;;;;;19.30;62.20;;;;;;6159826;23;19979;-82
2022/09/12 00:18:23;;;;;;;;;;;19.30;62.00;;;;;;6166927;23;19912;-81
2022/09/12 00:20:50;;;;;;;;;;;19.30;61.70;;;;;;6165168;23;19996;-83
2022/09/12 00:23:16;;;;;;;;;;;19.40;62.10;;;;;;6153875;23;19920;-81
2022/09/12 00:25:44;;;;;;;;;;;19.40;61.60;;;;;;6162961;23;19944;-81
2022/09/12 00:28:11;;;;;;;;;;;19.50;61.10;;;;;;6169045;23;19992;-80
2022/09/12 00:30:42;;;;;;;;;;;19.50;60.90;;;;;;6159081;23;19943;-82
2022/09/12 00:33:09;;;;;;;;;;;19.50;60.80;;;;;;6167641;23;19920;-81
2022/09/12 00:35:43;;;;;;;;;;;19.60;60.70;;;;;;6159873;23;19936;-82
2022/09/12 00:38:10;;;;;;;;;;;19.50;60.50;;;;;;6164127;23;19921;-83
2022/09/12 00:40:37;;;;;;;;;;;19.60;60.40;;;;;;6163939;23;19951;-82
2022/09/12 00:43:04;;;;;;;;;;;19.60;60.20;;;;;;6162227;23;19920;-81
2022/09/12 00:45:31;;;;;;;;;;;19.60;60.10;;;;;;6161242;23;19917;-81
2022/09/12 00:48:01;;;;;;;;;;;19.60;60.10;;;;;;6165758;23;19927;-81
2022/09/12 00:50:28;;;;;;;;;;;19.60;59.90;;;;;;6160271;23;20253;-81
2022/09/12 00:52:58;;;;;;;;;;;19.70;60.00;;;;;;6159285;23;20353;-81
2022/09/12 00:55:36;;;;;;;;;;;19.70;59.80;;;;;;6163894;23;19939;-83
2022/09/12 00:58:22;;;;;;;;;;;19.70;59.90;;;;;;6168683;23;19952;-81
2022/09/12 01:00:49;;;;;;;;;;;19.70;59.60;;;;;;6156000;23;19943;-81
2022/09/12 01:03:18;;;;;;;;;;;19.70;59.80;;;;;;6162209;23;19916;-80
2022/09/12 01:06:00;;;;;;;;;;;19.70;59.50;;;;;;6155563;23;19917;-81
2022/09/12 01:08:27;;;;;;;;;;;19.70;59.30;;;;;;6162970;23;19924;-81
2022/09/12 01:10:55;;;;;;;;;;;19.70;59.90;;;;;;6158314;23;19932;-82
2022/09/12 01:13:22;;;;;;;;;;;19.70;59.70;;;;;;6164309;23;20260;-82
2022/09/12 01:15:48;;;;;;;;;;;19.60;60.10;;;;;;6155027;23;19991;-80
2022/09/12 01:18:27;;;;;;;;;;;19.60;59.60;;;;;;6159664;23;19971;-80
2022/09/12 01:21:07;;;;;;;;;;;19.60;59.80;;;;;;6154462;23;19916;-82
2022/09/12 01:23:52;;;;;;;;;;;19.60;59.60;;;;;;6163118;23;19922;-81
2022/09/12 01:26:31;;;;;;;;;;;19.60;59.00;;;;;;6159357;23;19985;-81
2022/09/12 01:29:29;;;;;;;;;;;19.70;59.40;;;;;;6160469;23;19983;-81
2022/09/12 01:32:02;;;;;;;;;;;19.70;59.10;;;;;;6169202;23;19928;-84
2022/09/12 01:34:36;;;;;;;;;;;19.70;59.00;;;;;;6159079;23;19926;-84
2022/09/12 01:37:21;;;;;;;;;;;19.70;58.60;;;;;;6153865;23;19923;-81
2022/09/12 01:39:53;;;;;;;;;;;19.60;59.20;;;;;;6163166;23;19960;-82
2022/09/12 01:42:32;;;;;;;;;;;19.60;59.40;;;;;;6163757;23;19924;-81
2022/09/12 01:45:03;;;;;;;;;;;19.50;59.30;;;;;;6155515;23;19917;-82
2022/09/12 01:47:33;;;;;;;;;;;19.50;59.40;;;;;;6164013;23;19920;-81
2022/09/12 01:50:01;;;;;;;;;;;19.50;59.50;;;;;;6163261;23;19916;-81
2022/09/12 01:52:33;;;;;;;;;;;19.40;60.00;;;;;;6166553;23;20289;-83
2022/09/12 01:55:05;;;;;;;;;;;19.40;59.80;;;;;;6154180;23;19944;-82
2022/09/12 01:57:42;;;;;;;;;;;19.30;60.10;;;;;;6166959;23;19995;-81
2022/09/12 02:03:33;;;;;;;;;;;19.30;59.80;;;;;;6158718;23;20008;-81
2022/09/12 02:06:04;;;;;;;;;;;19.30;59.90;;;;;;6157331;23;19921;-81
2022/09/12 02:08:34;;;;;;;;;;;19.30;59.90;;;;;;6160860;23;19905;-84
2022/09/12 02:11:04;;;;;;;;;;;19.30;60.30;;;;;;6163300;23;19999;-81
2022/09/12 02:13:34;;;;;;;;;;;19.30;59.80;;;;;;6158104;23;20299;-81
2022/09/12 02:16:04;;;;;;;;;;;19.30;60.00;;;;;;6154263;23;19936;-81
2022/09/12 02:18:32;;;;;;;;;;;19.20;60.10;;;;;;6157397;23;20326;-83
2022/09/12 02:21:00;;;;;;;;;;;19.20;60.30;;;;;;6158472;23;19988;-83
2022/09/12 02:23:28;;;;;;;;;;;19.20;60.10;;;;;;6162545;23;19917;-83
2022/09/12 02:25:57;;;;;;;;;;;19.20;60.30;;;;;;6165088;23;19936;-81
2022/09/12 02:28:26;;;;;;;;;;;19.20;60.10;;;;;;6167481;23;19916;-82
2022/09/12 02:31:05;;;;;;;;;;;19.10;60.50;;;;;;6162891;23;20000;-81
2022/09/12 02:33:40;;;;;;;;;;;19.20;59.80;;;;;;6158547;23;19992;-81
2022/09/12 02:36:23;;;;;;;;;;;19.20;59.60;;;;;;6159250;23;19940;-80
2022/09/12 02:38:50;;;;;;;;;;;19.20;60.00;;;;;;6155380;23;19944;-82
2022/09/12 02:41:18;;;;;;;;;;;19.20;59.80;;;;;;6154508;23;19944;-81
2022/09/12 02:43:45;;;;;;;;;;;19.10;59.80;;;;;;6157407;23;20302;-82
2022/09/12 02:46:20;;;;;;;;;;;19.10;60.10;;;;;;6154410;23;20080;-81
2022/09/12 02:48:47;;;;;;;;;;;19.10;60.20;;;;;;6156815;23;19971;-80
2022/09/12 02:51:14;;;;;;;;;;;19.10;59.90;;;;;;6158000;23;19984;-82
2022/09/12 02:53:40;;;;;;;;;;;19.10;59.70;;;;;;6158173;23;19921;-81
2022/09/12 02:56:20;;;;;;;;;;;19.10;59.90;;;;;;6163610;23;19936;-82
2022/09/12 02:58:47;;;;;;;;;;;19.10;60.10;;;;;;6154271;23;19925;-81
2022/09/12 03:01:32;;;;;;;;;;;19.00;59.90;;;;;;6158465;23;19916;-81
2022/09/12 03:03:59;;;;;;;;;;;19.00;60.30;;;;;;6158116;23;19948;-81
2022/09/12 03:06:32;;;;;;;;;;;19.00;60.00;;;;;;6158519;23;19901;-81
2022/09/12 03:09:04;;;;;;;;;;;19.00;60.00;;;;;;6153069;23;19922;-81
2022/09/12 03:11:43;;;;;;;;;;;19.00;60.00;;;;;;6164616;23;19920;-84
2022/09/12 03:14:10;;;;;;;;;;;18.90;60.20;;;;;;6166332;23;19940;-83
2022/09/12 03:17:02;;;;;;;;;;;18.90;60.30;;;;;;6155226;23;19985;-81
2022/09/12 03:19:31;;;;;;;;;;;18.90;60.20;;;;;;6158684;23;19917;-82
2022/09/12 03:22:17;;;;;;;;;;;18.90;60.00;;;;;;6154470;23;19920;-84
2022/09/12 03:24:49;;;;;;;;;;;19.00;59.70;;;;;;6158310;23;20227;-81
2022/09/12 03:27:19;;;;;;;;;;;19.00;59.10;;;;;;6161318;23;19916;-81
2022/09/12 03:29:47;;;;;;;;;;;19.10;59.30;;;;;;6162363;23;20478;-81
2022/09/12 03:32:14;;;;;;;;;;;19.00;60.00;;;;;;6163277;23;19916;-81
2022/09/12 03:34:40;;;;;;;;;;;19.10;59.10;;;;;;6161945;23;19920;-82
2022/09/12 03:37:07;;;;;;;;;;;19.10;58.90;;;;;;6160873;23;19955;-83
2022/09/12 03:39:34;;;;;;;;;;;19.10;58.70;;;;;;6156593;23;19916;-83
2022/09/12 03:42:00;;;;;;;;;;;19.10;59.40;;;;;;6156111;23;19927;-82
2022/09/12 03:44:27;;;;;;;;;;;19.00;59.40;;;;;;6165233;23;19947;-82
2022/09/12 03:46:54;;;;;;;;;;;18.90;60.00;;;;;;6165032;23;19916;-81
2022/09/12 03:49:21;;;;;;;;;;;18.90;59.80;;;;;;6169592;23;20003;-84
2022/09/12 03:51:47;;;;;;;;;;;18.90;59.80;;;;;;6163118;23;19948;-83
2022/09/12 03:54:14;;;;;;;;;;;18.90;59.70;;;;;;6158618;23;19924;-83
2022/09/12 03:56:41;;;;;;;;;;;18.90;59.70;;;;;;6169158;23;19949;-82
2022/09/12 03:59:07;;;;;;;;;;;18.90;59.60;;;;;;6161425;23;19956;-82
2022/09/12 04:01:34;;;;;;;;;;;18.80;59.50;;;;;;6157803;23;19992;-81
2022/09/12 04:04:01;;;;;;;;;;;18.80;59.60;;;;;;6160065;23;19986;-81
2022/09/12 04:06:28;;;;;;;;;;;18.80;59.40;;;;;;6158107;23;20306;-82
2022/09/12 04:08:55;;;;;;;;;;;18.80;59.00;;;;;;6160378;23;19923;-82
2022/09/12 04:11:22;;;;;;;;;;;18.80;58.80;;;;;;6162459;23;19916;-82
2022/09/12 04:13:49;;;;;;;;;;;18.90;58.40;;;;;;6159876;23;19940;-82
2022/09/12 04:16:17;;;;;;;;;;;18.90;58.30;;;;;;6166390;23;19916;-82
2022/09/12 04:18:44;;;;;;;;;;;18.90;58.30;;;;;;6161623;23;19971;-84
2022/09/12 04:21:13;;;;;;;;;;;18.90;58.20;;;;;;6157792;23;19921;-81
2022/09/12 04:23:40;;;;;;;;;;;19.00;58.10;;;;;;6155839;23;19991;-83
2022/09/12 04:26:07;;;;;;;;;;;18.90;58.60;;;;;;6163213;23;20330;-83
2022/09/12 04:28:34;;;;;;;;;;;18.90;59.00;;;;;;6157697;23;19940;-81
2022/09/12 04:31:03;;;;;;;;;;;18.80;59.00;;;;;;6157229;23;19999;-81
2022/09/12 04:33:30;;;;;;;;;;;18.80;59.20;;;;;;6162245;23;19992;-81
2022/09/12 04:36:01;;;;;;;;;;;18.70;59.40;;;;;;6161103;23;19920;-82
2022/09/12 04:38:28;;;;;;;;;;;18.60;60.00;;;;;;6159914;23;19928;-82
2022/09/12 04:40:55;;;;;;;;;;;18.60;59.60;;;;;;6159210;23;19995;-81
2022/09/12 04:43:22;;;;;;;;;;;18.60;59.80;;;;;;6154873;23;20312;-82
2022/09/12 04:45:49;;;;;;;;;;;18.50;60.70;;;;;;6158658;23;19922;-81
2022/09/12 04:48:16;;;;;;;;;;;18.50;60.60;;;;;;6165570;23;19940;-83
2022/09/12 04:50:42;;;;;;;;;;;18.40;60.40;;;;;;6161409;23;20004;-81
2022/09/12 04:53:09;;;;;;;;;;;18.40;60.50;;;;;;6155009;23;19952;-81
2022/09/12 04:55:36;;;;;;;;;;;18.40;60.70;;;;;;6158261;23;19943;-81
2022/09/12 04:58:03;;;;;;;;;;;18.30;60.70;;;;;;6156175;23;20336;-81
2022/09/12 05:00:29;;;;;;;;;;;18.30;60.80;;;;;;6154209;23;19916;-82
2022/09/12 05:02:56;;;;;;;;;;;18.20;61.30;;;;;;6155285;23;19976;-81
2022/09/12 05:05:23;;;;;;;;;;;18.20;61.30;;;;;;6157151;23;20397;-83
2022/09/12 05:07:49;;;;;;;;;;;18.20;61.20;;;;;;6160314;23;20349;-81
2022/09/12 05:10:17;;;;;;;;;;;18.20;61.00;;;;;;6159558;23;19940;-83
2022/09/12 05:12:43;;;;;;;;;;;18.20;60.80;;;;;;6160869;23;19996;-83
2022/09/12 05:15:10;;;;;;;;;;;18.30;60.80;;;;;;6162296;23;20286;-81
2022/09/12 05:17:37;;;;;;;;;;;18.20;61.10;;;;;;6154791;23;20350;-81
2022/09/12 05:20:04;;;;;;;;;;;18.20;61.30;;;;;;6168116;23;19999;-81
2022/09/12 05:22:31;;;;;;;;;;;18.20;60.80;;;;;;6160329;23;20438;-82
2022/09/12 05:24:57;;;;;;;;;;;18.20;60.70;;;;;;6158951;23;19952;-81
2022/09/12 05:27:24;;;;;;;;;;;18.20;60.50;;;;;;6163195;23;19923;-81
2022/09/12 05:29:51;;;;;;;;;;;18.30;60.50;;;;;;6158242;23;19940;-82
2022/09/12 05:32:17;;;;;;;;;;;18.30;60.50;;;;;;6158644;23;19944;-81
2022/09/12 05:34:44;;;;;;;;;;;18.30;60.00;;;;;;6158097;23;20334;-82
2022/09/12 05:37:11;;;;;;;;;;;18.30;60.00;;;;;;6166986;23;19955;-83
2022/09/12 05:39:38;;;;;;;;;;;18.30;60.00;;;;;;6166434;23;19989;-83
2022/09/12 05:42:05;;;;;;;;;;;18.30;59.70;;;;;;6160112;23;19967;-82
2022/09/12 05:44:32;;;;;;;;;;;18.40;60.10;;;;;;6153530;23;19927;-80
2022/09/12 05:46:59;;;;;;;;;;;18.40;61.10;;;;;;6154192;23;19916;-82
2022/09/12 05:49:25;;;;;;;;;;;18.40;60.10;;;;;;6157042;23;19948;-82
2022/09/12 05:51:52;;;;;;;;;;;18.40;59.20;;;;;;6154779;23;19997;-80
2022/09/12 05:54:20;;;;;;;;;;;18.40;59.10;;;;;;6162565;23;19900;-81
2022/09/12 05:56:47;;;;;;;;;;;18.40;58.90;;;;;;6168279;23;19905;-82
2022/09/12 05:59:19;;;;;;;;;;;18.50;58.80;;;;;;6159920;23;19916;-81
2022/09/12 06:01:47;;;;;;;;;;;18.50;58.80;;;;;;6159329;23;20330;-81
2022/09/12 06:04:13;;;;;;;;;;;18.50;58.90;;;;;;6158223;23;19916;-81
2022/09/12 06:06:43;;;;;;;;;;;18.50;59.00;;;;;;6158605;23;20356;-83
2022/09/12 06:09:11;;;;;;;;;;;18.50;59.10;;;;;;6163913;23;19927;-81
2022/09/12 06:11:41;;;;;;;;;;;18.60;58.70;;;;;;6158496;23;19921;-81
2022/09/12 06:14:09;;;;;;;;;;;18.50;58.80;;;;;;6164197;23;20011;-83
2022/09/12 06:16:36;;;;;;;;;;;18.60;58.60;;;;;;6162743;23;19924;-84
2022/09/12 06:19:05;;;;;;;;;;;18.60;59.00;;;;;;6157290;23;19920;-81
2022/09/12 06:21:34;;;;;;;;;;;18.60;58.50;;;;;;6158785;23;19920;-81
2022/09/12 06:24:01;;;;;;;;;;;18.70;58.20;;;;;;6160163;23;19920;-79
2022/09/12 06:26:28;;;;;;;;;;;18.70;58.40;;;;;;6159000;23;19901;-81
2022/09/12 06:28:55;;;;;;;;;;;18.80;59.00;;;;;;6157148;23;19916;-81
2022/09/12 06:31:24;;;;;;;;;;;18.80;59.40;;;;;;6164095;23;19999;-81
2022/09/12 06:33:51;;;;;;;;;;;18.90;58.70;;;;;;6153906;23;20334;-81
2022/09/12 06:36:20;;;;;;;;;;;18.90;58.90;;;;;;6158653;23;19920;-83
2022/09/12 06:38:47;;;;;;;;;;;18.90;58.70;;;;;;6153358;23;19991;-81
2022/09/12 06:41:14;;;;;;;;;;;18.90;57.90;;;;;;6158093;23;20352;-81
2022/09/12 06:43:41;;;;;;;;;;;19.00;58.20;;;;;;6154734;23;19951;-82
2022/09/12 06:46:09;;;;;;;;;;;19.00;58.40;;;;;;6154087;23;19920;-82
2022/09/12 06:48:36;;;;;;;;;;;19.00;58.10;;;;;;6154760;23;19936;-81
2022/09/12 06:51:12;;;;;;;;;;;19.10;57.50;;;;;;6162304;23;19962;-81
2022/09/12 06:53:39;;;;;;;;;;;19.20;57.40;;;;;;6152502;23;19971;-81
2022/09/12 06:56:18;;;;;;;;;;;19.20;57.80;;;;;;6157169;23;19924;-82
2022/09/12 06:58:45;;;;;;;;;;;19.30;57.10;;;;;;6156447;23;19917;-81
2022/09/12 07:01:23;;;;;;;;;;;19.40;57.10;;;;;;6157242;23;19952;-81
2022/09/12 07:03:54;;;;;;;;;;;19.40;57.50;;;;;;6160625;23;19916;-83
2022/09/12 07:06:30;;;;;;;;;;;19.50;56.40;;;;;;6158520;23;19923;-83
2022/09/12 07:08:58;;;;;;;;;;;19.60;56.70;;;;;;6155906;23;20424;-84
2022/09/12 07:11:25;;;;;;;;;;;19.70;56.70;;;;;;6155917;23;19922;-81
2022/09/12 07:13:53;;;;;;;;;;;19.80;55.80;;;;;;6159326;23;19935;-81
2022/09/12 07:16:20;;;;;;;;;;;20.00;56.40;;;;;;6160416;23;19923;-81
2022/09/12 07:18:51;;;;;;;;;;;20.10;55.60;;;;;;6160933;23;19916;-80
2022/09/12 07:21:19;;;;;;;;;;;20.30;55.70;;;;;;6158594;23;19951;-83
2022/09/12 07:23:46;;;;;;;;;;;20.50;55.30;;;;;;6161326;23;20313;-81
2022/09/12 07:26:14;;;;;;;;;;;20.60;54.90;;;;;;6157395;23;19992;-81
2022/09/12 07:28:41;;;;;;;;;;;20.80;54.80;;;;;;6163873;23;19924;-81
2022/09/12 07:31:12;;;;;;;;;;;20.90;55.50;;;;;;6155019;23;19964;-82
2022/09/12 07:33:40;;;;;;;;;;;21.00;53.30;;;;;;6158135;23;19916;-82
2022/09/12 07:36:15;;;;;;;;;;;21.20;53.00;;;;;;6164936;23;19952;-81
2022/09/12 07:38:42;;;;;;;;;;;21.30;52.00;;;;;;6161500;23;19960;-82
2022/09/12 07:41:13;;;;;;;;;;;21.50;52.20;;;;;;6166467;23;19917;-81
2022/09/12 07:43:43;;;;;;;;;;;21.60;52.30;;;;;;6159534;23;19999;-82
2022/09/12 07:46:10;;;;;;;;;;;21.80;51.80;;;;;;6155216;23;19927;-83
2022/09/12 07:48:38;;;;;;;;;;;21.90;52.20;;;;;;6165848;23;20302;-82
2022/09/12 07:51:06;;;;;;;;;;;22.10;51.60;;;;;;6156486;23;20249;-81
2022/09/12 07:53:34;;;;;;;;;;;22.20;50.70;;;;;;6163485;23;19925;-82
2022/09/12 07:56:02;;;;;;;;;;;22.30;49.80;;;;;;6157975;23;20301;-81
2022/09/12 07:58:29;;;;;;;;;;;22.40;50.80;;;;;;6157466;23;19916;-83
2022/09/12 08:01:03;;;;;;;;;;;22.60;52.80;;;;;;6162549;23;19916;-81
2022/09/12 08:03:30;;;;;;;;;;;22.80;50.80;;;;;;6158356;23;19907;-82
2022/09/12 08:06:10;;;;;;;;;;;22.90;49.20;;;;;;6158104;23;19936;-82
2022/09/12 08:08:37;;;;;;;;;;;22.90;49.30;;;;;;6161464;23;19956;-82
2022/09/12 08:11:05;;;;;;;;;;;23.00;48.80;;;;;;6158451;23;19943;-81
2022/09/12 08:13:32;;;;;;;;;;;23.20;48.60;;;;;;6168287;23;19925;-80
2022/09/12 08:16:00;;;;;;;;;;;23.40;48.60;;;;;;6156775;23;19936;-83
2022/09/12 08:18:28;;;;;;;;;;;23.30;47.80;;;;;;6158379;23;19952;-82
2022/09/12 08:20:59;;;;;;;;;;;23.30;49.50;;;;;;6169243;23;19923;-82
2022/09/12 08:23:29;;;;;;;;;;;23.40;50.00;;;;;;6155985;23;20304;-83
2022/09/12 08:25:57;;;;;;;;;;;23.60;49.40;;;;;;6164703;23;19901;-82
2022/09/12 08:28:24;;;;;;;;;;;23.90;49.20;;;;;;6160111;23;19916;-82
2022/09/12 08:30:51;;;;;;;;;;;24.00;48.00;;;;;;6158867;23;19923;-81
2022/09/12 08:33:19;;;;;;;;;;;24.20;49.40;;;;;;6159156;23;19920;-83
2022/09/12 08:35:46;;;;;;;;;;;24.40;48.90;;;;;;6152632;23;19991;-81
2022/09/12 08:38:13;;;;;;;;;;;24.50;48.20;;;;;;6152972;23;19921;-82
2022/09/12 08:40:46;;;;;;;;;;;24.40;48.30;;;;;;6153287;23;19996;-81
2022/09/12 08:43:27;;;;;;;;;;;24.50;49.50;;;;;;6163645;23;19951;-82
2022/09/12 08:46:01;;;;;;;;;;;24.50;49.30;;;;;;6154317;23;19951;-82
2022/09/12 08:48:28;;;;;;;;;;;24.50;48.60;;;;;;6156986;23;19920;-83
2022/09/12 08:50:55;;;;;;;;;;;24.70;48.80;;;;;;6157413;23;19924;-82
2022/09/12 08:53:24;;;;;;;;;;;24.80;48.60;;;;;;6168594;23;19932;-82
2022/09/12 08:55:58;;;;;;;;;;;25.00;47.90;;;;;;6158417;23;20385;-82
2022/09/12 08:58:27;;;;;;;;;;;25.00;47.80;;;;;;6162330;23;19957;-81
2022/09/12 09:01:00;;;;;;;;;;;25.10;48.80;;;;;;6161332;23;20014;-82
2022/09/12 09:03:34;;;;;;;;;;;25.00;49.80;;;;;;6154456;23;19991;-81
2022/09/12 09:06:07;;;;;;;;;;;25.10;49.40;;;;;;6158490;23;19920;-81
2022/09/12 09:08:44;;;;;;;;;;;25.10;49.80;;;;;;6164102;23;19969;-83
2022/09/12 09:11:11;;;;;;;;;;;25.10;49.90;;;;;;6154128;23;20305;-82
2022/09/12 09:16:43;;;;;;;;;;;25.10;49.70;;;;;;6155870;23;19992;-82
2022/09/12 09:19:14;;;;;;;;;;;25.20;49.30;;;;;;6164143;23;19936;-83
2022/09/12 09:21:43;;;;;;;;;;;25.50;49.70;;;;;;6158660;23;19995;-81
2022/09/12 09:24:11;;;;;;;;;;;25.40;49.10;;;;;;6159111;23;20382;-83
2022/09/12 09:26:42;;;;;;;;;;;25.60;49.10;;;;;;6162916;23;20231;-83
2022/09/12 09:29:15;;;;;;;;;;;25.70;49.50;;;;;;6163335;23;19917;-83
2022/09/12 09:31:44;;;;;;;;;;;25.80;49.90;;;;;;6162599;23;19956;-81
2022/09/12 09:34:19;;;;;;;;;;;25.60;48.90;;;;;;6155033;23;19924;-82
2022/09/12 09:36:50;;;;;;;;;;;25.90;50.20;;;;;;6163565;23;19988;-83
2022/09/12 09:39:28;;;;;;;;;;;25.70;48.80;;;;;;6158750;23;19988;-81
2022/09/12 09:41:55;;;;;;;;;;;25.50;50.50;;;;;;6154610;23;19984;-82
2022/09/12 09:44:22;;;;;;;0.00;0.00;;;25.50;49.50;;;;;;6156780;23;19988;-82
2022/09/12 09:46:54;;;;;;;0.00;0.00;;;25.70;50.80;;;;;;6158381;23;20144;-83
2022/09/12 09:49:22;;;;;;;0.00;0.00;;;25.70;49.30;;;;;;6153920;23;20056;-82
2022/09/12 09:51:49;;;;;;;0.00;0.00;;;25.80;49.40;;;;;;6157975;23;20036;-81
2022/09/12 09:54:19;;;;;;;;;;;26.00;49.40;;;;;;6158943;23;20359;-82
2022/09/12 09:56:46;;;;;;;;;;;25.90;49.80;;;;;;6155813;23;19986;-82
2022/09/12 09:59:17;;;;;;;;;;;25.70;50.00;;;;;;6154640;23;19980;-82
2022/09/12 10:01:49;;;;;;;;;;;25.80;49.60;;;;;;6154240;23;20307;-82
2022/09/12 10:04:18;;;;;;;;;;;26.00;49.50;;;;;;6158882;23;19920;-81
2022/09/12 10:06:45;;;;;;;;;;;26.00;49.10;;;;;;6154470;23;19916;-82
2022/09/12 10:09:20;;;;;;;;;;;25.90;50.50;;;;;;6154125;23;19940;-82
2022/09/12 10:11:48;;;;;;;;;;;26.00;49.50;;;;;;6155760;23;20341;-82
2022/09/12 10:14:35;;;;;;;;;;;26.20;50.20;;;;;;6154173;23;20334;-81
2022/09/12 10:17:21;;;;;;;;;;;26.40;47.50;;;;;;6153821;23;19944;-82
2022/09/12 10:19:47;;;;;;;;;;;26.40;46.50;;;;;;6156239;23;19927;-82
2022/09/12 10:22:34;;;;;;;;;;;26.50;49.00;;;;;;6155061;23;19920;-82
2022/09/12 10:25:01;;;;;;;;;;;26.50;46.90;;;;;;6153322;23;19921;-81
2022/09/12 10:27:31;;;;;;;;;;;26.60;45.50;;;;;;6155175;23;20337;-82
2022/09/12 10:29:58;;;;;;;;;;;26.70;46.10;;;;;;6153742;23;19952;-82
2022/09/12 10:32:28;;;;;;;;;;;26.70;45.90;;;;;;6153791;23;20329;-82
2022/09/12 10:35:03;;;;;;;0.00;0.00;;;26.50;46.60;;;;;;6152415;23;19916;-82
2022/09/12 10:37:36;;;;;;;0.00;0.00;;;26.60;45.80;;;;;;6154396;23;20021;-82
2022/09/12 10:40:05;;;;;;;0.00;0.00;;;26.70;44.90;;;;;;6155472;23;20044;-82
2022/09/12 10:42:46;;;;;;;0.00;0.00;;;26.70;44.20;;;;;;6156423;23;20026;-82
2022/09/12 10:45:29;;;;;;;0.00;0.00;;;26.30;44.60;;;;;;6176936;23;20036;-81
2022/09/12 10:48:01;;;;;;;0.00;0.00;;;26.60;45.90;;;;;;6154145;23;20056;-81
2022/09/12 10:50:41;;;;;;;0.00;0.00;;;26.90;47.00;;;;;;6154673;23;20041;-82
2022/09/12 10:53:23;;;;;;;0.00;0.00;;;27.20;45.40;;;;;;6155279;23;20033;-82
2022/09/12 10:56:25;;;;;;;0.75;0.00;;;27.00;44.70;;;;;;6153363;23;20100;-82
2022/09/12 10:59:16;;;;;;;0.00;0.00;;;27.00;45.60;;;;;;6122359;23;20057;-82
2022/09/12 11:02:01;;;;;;;0.10;0.00;;;27.00;44.00;;;;;;6178122;23;20093;-82
2022/09/12 11:04:34;;;;;;;0.00;0.00;;;27.30;44.50;;;;;;6178827;23;20036;-83
2022/09/12 11:07:05;;;;;;;;;;;27.50;42.90;;;;;;6153512;23;20053;-82
2022/09/12 11:09:56;;;;;;;0.00;0.00;;;27.50;45.10;;;;;;6155845;23;19923;-82
2022/09/12 11:12:26;;;;;;;0.00;0.00;;;27.20;44.50;;;;;;6153976;23;20032;-82
2022/09/12 11:15:21;;;;;;;0.00;0.00;;;27.30;45.60;;;;;;6155219;23;20025;-83
2022/09/12 11:18:04;;;;;;;0.00;0.00;;;27.60;46.00;;;;;;6156135;23;20497;-83
2022/09/12 11:20:52;;;;;;;0.00;0.00;;;27.40;42.90;;;;;;6157224;23;20037;-81
2022/09/12 11:23:48;;;;;;;0.00;0.00;;;27.20;44.70;;;;;;6156294;23;20056;-82
2022/09/12 11:26:33;;;;;;;0.00;0.00;;;26.80;40.40;;;;;;6144179;23;20089;-82
2022/09/12 11:29:18;;;;;;;0.00;0.00;;;26.90;42.20;;;;;;6155424;23;20065;-81
2022/09/12 11:31:55;;;;;;;;;;;27.40;43.80;;;;;;6153539;23;20506;-80
2022/09/12 11:34:28;;;;;;;;;;;27.80;42.90;;;;;;6156242;23;20000;-82
2022/09/12 11:37:18;;;;;;;;;;;28.00;41.50;;;;;;6156096;23;19971;-82
2022/09/12 11:39:45;;;;;;;;;;;28.20;41.60;;;;;;6155407;23;19916;-82
2022/09/12 11:42:16;;;;;;;;;;;28.00;39.40;;;;;;6155248;23;20330;-82
2022/09/12 11:44:50;;;;;;;;;;;28.30;40.30;;;;;;6164256;23;19928;-81
2022/09/12 11:47:19;;;;;;;;;;;27.60;41.30;;;;;;6155707;23;19968;-83
2022/09/12 11:49:48;;;;;;;;;;;27.60;42.10;;;;;;6152420;23;20306;-82
2022/09/12 11:52:17;;;;;;;;;;;27.70;40.70;;;;;;6153402;23;19920;-83
2022/09/12 11:54:47;;;;;;;;;;;27.70;40.20;;;;;;6153847;23;19947;-82
2022/09/12 11:57:27;;;;;;;;;;;27.70;41.70;;;;;;6155212;23;19920;-81
2022/09/12 11:59:53;;;;;;;;;;;27.60;40.50;;;;;;6155095;23;19916;-82
2022/09/12 12:02:26;;;;;;;;;;;27.70;40.80;;;;;;6154917;23;20361;-82
2022/09/12 12:05:13;;;;;;;;;;;28.10;39.30;;;;;;6152250;23;19927;-82
2022/09/12 12:07:41;;;;;;;;;;;28.40;40.90;;;;;;6153834;23;19916;-82
2022/09/12 12:10:23;;;;;;;;;;;28.10;40.60;;;;;;6156322;23;19916;-82
2022/09/12 12:12:50;;;;;;;;;;;28.20;40.10;;;;;;6152362;23;19924;-83
2022/09/12 12:15:18;;;;;;;;;;;28.60;40.60;;;;;;6155060;23;19920;-82
2022/09/12 12:17:58;;;;;;;;;;;28.10;42.40;;;;;;6157468;23;19916;-83
2022/09/12 12:20:26;;;;;;;;;;;27.60;43.80;;;;;;6157126;23;20157;-80
2022/09/12 12:22:53;;;;;;;;;;;27.80;44.80;;;;;;6154171;23;20438;-81
2022/09/12 12:25:23;;;;;;;;;;;28.00;43.40;;;;;;6159060;23;19936;-82
2022/09/12 12:28:00;;;;;;;;;;;28.30;44.40;;;;;;6156837;23;19971;-82
2022/09/12 12:30:30;;;;;;;;;;;28.60;43.00;;;;;;6158323;23;19940;-82
2022/09/12 12:33:01;;;;;;;;;;;28.70;40.70;;;;;;6155038;23;19916;-81
2022/09/12 12:35:36;;;;;;;;;;;28.80;40.50;;;;;;6154917;23;20031;-82
2022/09/12 12:38:23;;;;;;;;;;;28.70;39.80;;;;;;6142286;23;20008;-83
2022/09/12 12:40:50;;;;;;;;;;;28.80;40.50;;;;;;6157677;23;20326;-82
2022/09/12 12:43:30;;;;;;;;;;;28.50;41.30;;;;;;6157186;23;19936;-82
2022/09/12 12:45:59;;;;;;;;;;;28.70;40.40;;;;;;6155694;23;19916;-82
2022/09/12 12:48:28;;;;;;;;;;;28.80;40.40;;;;;;6159246;23;19983;-82
2022/09/12 12:51:14;;;;;;;;;;;29.00;39.90;;;;;;6156064;23;19987;-82
2022/09/12 12:53:41;;;;;;;;;;;28.90;40.00;;;;;;6162329;23;19916;-80
2022/09/12 12:56:25;;;;;;;;;;;29.10;39.90;;;;;;6160673;23;19960;-80
2022/09/12 12:58:59;;;;;;;;;;;29.10;39.50;;;;;;6158311;23;19916;-81
2022/09/12 13:01:27;;;;;;;;;;;29.10;40.00;;;;;;6154423;23;19967;-81
2022/09/12 13:03:55;;;;;;;;;;;28.80;39.80;;;;;;6157447;23;19991;-81
2022/09/12 13:06:25;;;;;;;;;;;29.10;40.80;;;;;;6159461;23;20338;-80
2022/09/12 13:08:58;;;;;;;;;;;29.00;39.70;;;;;;6153781;23;19924;-81
2022/09/12 13:11:30;;;;;;;;;;;28.60;40.60;;;;;;6158971;23;19923;-80
2022/09/12 13:13:59;;;;;;;;;;;29.10;40.90;;;;;;6156114;23;19964;-81
2022/09/12 13:16:39;;;;;;;;;;;29.40;38.70;;;;;;6156546;23;19927;-81
2022/09/12 13:19:19;;;;;;;;;;;29.50;38.80;;;;;;6157384;23;19936;-80
2022/09/12 13:21:55;;;;;;;;;;;29.10;39.80;;;;;;6159899;23;19947;-81
2022/09/12 13:24:22;;;;;;;;;;;29.10;40.30;;;;;;6154718;23;19991;-81
2022/09/12 13:26:49;;;;;;;;;;;29.30;40.40;;;;;;6153661;23;19916;-80
2022/09/12 13:29:20;;;;;;;;;;;29.10;39.70;;;;;;6155791;23;19940;-81
2022/09/12 13:31:48;;;;;;;;;;;28.80;39.70;;;;;;6153923;23;19916;-80
2022/09/12 13:34:21;;;;;;;;;;;29.30;39.90;;;;;;6157446;23;19920;-80
2022/09/12 13:36:56;;;;;;;;;;;29.50;39.00;;;;;;6155582;23;19945;-81
2022/09/12 13:39:41;;;;;;;;;;;29.30;38.10;;;;;;6158532;23;19940;-81
2022/09/12 13:42:25;;;;;;;;;;;28.90;38.00;;;;;;6153529;23;19921;-81
2022/09/12 13:45:04;;;;;;;;;;;28.30;38.80;;;;;;6157341;23;19916;-81
2022/09/12 13:47:33;;;;;;;;;;;28.70;40.20;;;;;;6154610;23;20361;-81
2022/09/12 13:50:02;;;;;;;;;;;29.20;37.70;;;;;;6154961;23;19920;-81
2022/09/12 13:52:30;;;;;;;;;;;29.60;38.60;;;;;;6154054;23;19920;-81
2022/09/12 13:54:58;;;;;;;;;;;29.60;36.70;;;;;;6153565;23;19956;-81
2022/09/12 13:57:30;;;;;;;;;;;29.60;38.10;;;;;;6155833;23;19917;-81
2022/09/12 13:59:57;;;;;;;;;;;29.70;37.90;;;;;;6159104;23;19997;-81
2022/09/12 14:02:26;;;;;;;;;;;29.80;37.00;;;;;;6157369;23;19917;-80
2022/09/12 14:05:09;;;;;;;;;;;30.10;37.90;;;;;;6156594;23;20338;-81
2022/09/12 14:07:57;;;;;;;;;;;30.30;36.90;;;;;;6154420;23;20265;-81
2022/09/12 14:10:31;;;;;;;;;;;29.90;36.70;;;;;;6156695;23;19920;-81
2022/09/12 14:13:10;;;;;;;;;;;30.10;36.90;;;;;;6153982;23;19921;-81
2022/09/12 14:15:37;;;;;;;;;;;30.00;36.70;;;;;;6153412;23;20329;-81
2022/09/12 14:18:05;;;;;;;;;;;30.20;36.70;;;;;;6158754;23;19920;-80
2022/09/12 14:20:35;;;;;;;;;;;29.80;36.60;;;;;;6155100;23;22044;-81
2022/09/12 14:23:05;;;;;;;;;;;29.50;37.30;;;;;;6158791;23;20254;-81
2022/09/12 14:25:36;;;;;;;;;;;29.60;37.20;;;;;;6153021;23;19947;-81
2022/09/12 14:28:03;;;;;;;;;;;29.80;37.20;;;;;;6159822;23;20333;-81
2022/09/12 14:30:31;;;;;;;;;;;29.90;36.90;;;;;;6158235;23;19932;-81
2022/09/12 14:33:10;;;;;;;;;;;30.10;37.40;;;;;;6157954;23;19927;-81
2022/09/12 14:35:39;;;;;;;;;;;29.90;37.20;;;;;;6158788;23;19940;-81
2022/09/12 14:38:15;;;;;;;;;;;30.50;36.00;;;;;;6153916;23;19968;-81
2022/09/12 14:40:47;;;;;;;;;;;30.70;36.30;;;;;;6160558;23;20337;-81